This is the latest recevied weather packets stored in our database for station/object IU2EVW-13. If no packets are shown the sender has not sent any weather packets the latest 10 day(s).
| Time | Temp. | Humidity | Pressure | Rain* | Wind** | Luminosity | Snow |
|---|---|---|---|---|---|---|---|
| 1787454376 | 15° C | 61% | 1021.8 hPa | - | - | - | - |
| 1787453175 | 15° C | 60% | 1021.7 hPa | - | - | - | - |
| 1787451974 | 15° C | 60% | 1021.7 hPa | - | - | - | - |
| 1787450773 | 15.56° C | 59% | 1021.6 hPa | - | - | - | - |
| 1787449571 | 15.56° C | 58% | 1021.5 hPa | - | - | - | - |
| 1787448370 | 15.56° C | 58% | 1021.3 hPa | - | - | - | - |
| 1787447169 | 16.11° C | 57% | 1021.2 hPa | - | - | - | - |
| 1787445968 | 16.11° C | 57% | 1021.1 hPa | - | - | - | - |
| 1787444766 | 16.11° C | 58% | 1021.1 hPa | - | - | - | - |
| 1787443565 | 16.11° C | 57% | 1021 hPa | - | - | - | - |
| 1787442364 | 16.11° C | 57% | 1020.9 hPa | - | - | - | - |
| 1787441163 | 16.11° C | 57% | 1020.8 hPa | - | - | - | - |
| 1787439961 | 16.11° C | 58% | 1020.7 hPa | - | - | - | - |
| 1787438760 | 16.11° C | 58% | 1020.6 hPa | - | - | - | - |
| 1787437559 | 16.67° C | 55% | 1020.6 hPa | - | - | - | - |
| 1787436358 | 16.67° C | 55% | 1020.6 hPa | - | - | - | - |
| 1787435155 | 17.22° C | 55% | 1020.6 hPa | - | - | - | - |
| 1787433953 | 17.22° C | 55% | 1020.4 hPa | - | - | - | - |
| 1787432751 | 17.78° C | 53% | 1020.2 hPa | - | - | - | - |
| 1787431550 | 18.33° C | 51% | 1020 hPa | - | - | - | - |
| 1787430349 | 18.33° C | 53% | 1019.9 hPa | - | - | - | - |
| 1787429146 | 18.33° C | 52% | 1019.6 hPa | - | - | - | - |
| 1787427944 | 18.89° C | 53% | 1019.3 hPa | - | - | - | - |
| 1787426743 | 18.89° C | 55% | 1018.9 hPa | - | - | - | - |
| 1787425541 | 19.44° C | 52% | 1018.6 hPa | - | - | - | - |
* Rain since midnight (hover to see other rain measurements)
** Current wind speed in m/s (hover to see current wind gust speed)